NCAR-RAP Real-Time Weather Data

Output produced by METARs form (26 May 2022  07:16 UTC)
found at http://weather.rap.ucar.edu/surface/
 
KCRW 260654Z 12005KT 10SM CLR 19/14 A3009 RMK AO2 SLP178 T01940144
KCRW 260554Z VRB03KT 10SM CLR 19/14 A3009 RMK AO2 SLP182 T01940144 10222 20194 50004
KCRW 260454Z 14008KT 10SM CLR 20/14 A3010 RMK AO2 SLP184 T02000144 402780139
KCRW 260354Z 15009G16KT 10SM CLR 20/14 A3009 RMK AO2 SLP182 T02000144
KCRW 260254Z 15016G24KT 10SM CLR 21/14 A3008 RMK AO2 SLP179 T02060144 56001
KCRW 260154Z 15012KT 10SM CLR 21/15 A3008 RMK AO2 SLP181 T02060150
KCRW 260054Z 14007G15KT 10SM FEW200 21/15 A3007 RMK AO2 SLP178 T02110150
KCRW 252354Z 12006KT 10SM FEW130 FEW200 22/15 A3008 RMK AO2 SLP181 T02220150 10278 20222 55002
KCRW 252254Z 12009G22KT 10SM FEW120 23/15 A3008 RMK AO2 SLP182 T02280150
KCRW 252154Z 14012G22KT 100V160 10SM FEW120 25/16 A3009 RMK AO2 SLP182 T02500156
KCRW 252054Z 12009G16KT 10SM SCT120 27/17 A3009 RMK AO2 SLP182 T02670167 56012
KCRW 251954Z 12008KT 10SM FEW050 SCT130 SCT200 28/17 A3010 RMK AO2 SLP185 T02780172
KCRW 251854Z 13009KT 10SM FEW050 SCT130 SCT200 27/17 A3011 RMK AO2 SLP188 T02720172
KCRW 251754Z 11007KT 10SM FEW040 SCT130 SCT200 27/17 A3012 RMK AO2 SLP194 T02670172 10267 20161 58015
KCRW 251654Z 12006KT 10SM SCT130 SCT150 BKN200 25/17 A3015 RMK AO2 SLP201 APRNT ROTOR CLD S T02500172
KCRW 251554Z 00000KT 10SM SCT130 BKN170 BKN200 24/17 A3016 RMK AO2 SLP208 T02390167
KCRW 251454Z VRB05KT 10SM SCT120 SCT170 BKN200 22/16 A3017 RMK AO2 SLP210 T02170156 51003
KCRW 251354Z 11003KT 10SM SCT120 BKN150 BKN190 19/15 A3017 RMK AO2 SLP210 T01940150
KCRW 251254Z 00000KT 10SM BKN150 BKN200 18/15 A3017 RMK AO2 SLP210 T01780150
KCRW 251154Z 04003KT 10SM BKN100 BKN140 16/14 A3016 RMK AO2 SLP207 T01610144 10161 20139 53005
KCRW 251054Z 04004KT 10SM FEW000 SCT100 BKN140 14/14 A3015 RMK AO2 SLP205 FG FEW000 T01440139
KCRW 250954Z 04004KT 6SM BR FEW000 BKN140 14/14 A3015 RMK AO2 SLP203 FG FEW000 T01440139
KCRW 250854Z 03003KT 10SM FEW000 BKN140 14/14 A3014 RMK AO2 SLP203 FG FEW000 T01440144 56006
KCRW 250754Z 12003KT 4SM BR SCT000 BKN200 14/14 A3015 RMK AO2 SLP206 FG SCT000 T01440144
KCRW 250654Z 00000KT 4SM BR SCT000 BKN200 14/14 A3015 RMK AO2 SLP206 FG SCT000 T01440144
KCRW 250554Z 00000KT 4SM BR SCT000 SCT050 BKN190 15/15 A3016 RMK AO2 SLP210 FG SCT000 T01500150 10194 20150 58005
KCRW 250454Z 07003KT 4SM BR SCT000 BKN044 16/16 A3017 RMK AO2 SLP213 FG SCT000 T01560156 402060128
KCRW 250354Z 00000KT 4SM BR FEW001 FEW044 16/16 A3018 RMK AO2 SLP216 FG FEW001 T01610161
KCRW 250351Z 00000KT 4SM BR FEW001 FEW044 16/16 A3018 RMK AO2 FG FEW001
KCRW 250344Z COR 06003KT 4SM BR FEW001 FEW044 16/16 A3018 RMK AO2 FG FEW001 T01610156
KCRW 250254Z 00000KT 10SM BKN040 17/17 A3018 RMK AO2 SLP217 T01720167 53012
KCRW 250154Z 09003KT 10SM SCT030 17/16 A3016 RMK AO2 SLP210 T01720161
KCRW 250054Z 11003KT 10SM FEW020 SCT030 18/16 A3017 RMK AO2 SLP211 T01780161
KCRW 242354Z 12003KT 10SM FEW020 BKN030 19/16 A3015 RMK AO2 SLP205 T01940161 10206 20189 56002
KCRW 242345Z 11003KT 10SM FEW020 BKN030 19/16 A3015 RMK AO2 T01940161
KCRW 242254Z 09004KT 10SM SCT018 BKN025 OVC036 20/15 A3015 RMK AO2 SLP205 T02000150
KCRW 242154Z 01003KT 10SM SCT018 BKN025 BKN040 21/16 A3014 RMK AO2 SLP204 T02060156
KCRW 242054Z 12005KT 10SM BKN018 BKN023 OVC043 20/15 A3015 RMK AO2 SLP207 T02000150 55007
KCRW 241954Z 11006KT 10SM BKN018 BKN023 OVC043 20/15 A3015 RMK AO2 SLP206 T02000150
KCRW 241919Z 00000KT 10SM FEW018 BKN023 OVC042 19/16 A3016 RMK AO2 T01940156
KCRW 241854Z 16003KT 10SM SCT019 SCT024 OVC042 19/15 A3016 RMK AO2 SLP209 T01940150
KCRW 241803Z 13003KT 10SM SCT012 OVC042 19/15 A3017 RMK AO2 T01890150
KCRW 241754Z 00000KT 10SM BKN012 BKN040 19/15 A3017 RMK AO2 SLP214 T01890150 10189 20133 58001
KCRW 241654Z 00000KT 10SM OVC010 18/15 A3019 RMK AO2 SLP218 T01830150
KCRW 241641Z 00000KT 10SM OVC012 17/14 A3018 RMK AO2 T01720144
KCRW 241554Z 00000KT 7SM OVC006 16/14 A3018 RMK AO2 SLP218 T01610139
KCRW 241533Z 00000KT 6SM BR OVC004 16/14 A3018 RMK AO2 VLY FG T01560144
KCRW 241504Z 00000KT 2 1/2SM BR OVC002 15/14 A3018 RMK AO2 VLY FG T01500144
KCRW 241454Z 00000KT 1SM BR OVC001 15/14 A3018 RMK AO2 SLP217 VLY FG T01500144 53009
KCRW 241354Z 00000KT 1SM BR BKN000 14/14 A3017 RMK AO2 SLP213 FG BKN000 T01440139
KCRW 241254Z 00000KT 1/2SM FG VV001 14/13 A3015 RMK AO2 SLP207 T01390133
KCRW 241154Z 00000KT 1/2SM FG VV001 13/13 A3015 RMK AO2 SLP207 70049 T01330133 10139 20128 53019
KCRW 241054Z 08003KT 1/2SM FG VV001 13/13 A3011 RMK AO2 SLP194 T01330133
KCRW 240954Z 00000KT 1/2SM FG VV001 13/13 A3010 RMK AO2 SLP189 T01330133
KCRW 240854Z 00000KT 1SM BR VV001 13/13 A3009 RMK AO2 SLP187 DNS VLY FG T01330128 55009
KCRW 240754Z 00000KT 1SM BR BKN000 13/13 A3008 RMK AO2 SLP185 FG BKN000 T01280128
KCRW 240720Z 08003KT 1SM BR BKN000 13/13 A3009 RMK AO2 FG BKN000 T01330133